Tiempo atmosférico en la estación meteorológica de Salvacañete, Cuenca (1160 m.)



Fecha
DESCASC
Temp. máxima en grados centígrados (hora)
DESCASC
Temp. mínima en grados centígrados (hora)
DESCASC
Temp. media en grados centígrados
DESCASC
Racha de viento máxima en m/sg (hora)
DESCASC
Velocidad máxima media en intervalos de 10 minutos(hora)
DESCASC
Precipitaciones diarias en mm
DESCASC
Precipitaciones de 00:00 a 06:00 en mm
DESCASC
Precipitaciones de 06:00 a 12:00 en mm
DESCASC
Precipitaciones de 12:00 a 18:00 en mm
DESCASC
Precipitaciones de 18:00 a 24:00 en mm
DESCASC
16-01-2020 11.9 (13:50) -2.4 (07:00) 4.7 7.78 (13:20) 4.17 (13:50) 0 0 0 0 0
15-01-2020 11.6 (13:40) -6.7 (01:30) 2.5 11.67 (13:00) 6.94 (14:10) 0 0 0 0 0
14-01-2020 13.1 (14:40) -9.4 (06:30) 1.9 7.22 (14:50) 3.89 (14:50) 0 0 0 0 0
13-01-2020 11 (15:10) -9.4 (07:10) 0.8 6.11 (15:40) 3.61 (13:00) 0 0 0 0 0
12-01-2020 12.4 (14:30) -9 (-00:0) 1.7 6.11 (11:20) 3.89 (11:20) 0 0 0 0 0
11-01-2020 11.2 (15:20) -5.1 (-00:0) 3 5.83 (00:40) 2.5 (13:30) 0 0 0 0 0
10-01-2020 6.6 (14:40) -2.8 (-00:0) 1.9 12.22 (13:10) 6.11 (17:00) 0 0 0 0 0
09-01-2020 13.5 (15:40) -5.3 (-00:0) 4.1 5.28 (13:40) 3.61 (13:40) 0 0 0 0 0
08-01-2020 13.3 (15:10) -3.9 (-00:0) 4.7 6.67 (11:30) 4.17 (11:30) 0 0 0 0 0
07-01-2020 18.2 (15:50) -5.5 (-00:0) 6.4 7.5 (14:10) 2.78 (14:40) 0 0 0 0 0
06-01-2020 16.7 (15:20) -6 (-00:0) 5.4 4.17 (14:00) 2.5 (14:00) 0 0 0 0 0
05-01-2020 17 (15:30) -4.6 (-00:0) 6.2 4.44 (02:20) 2.78 (02:10) 0 0 0 0 0
04-01-2020 9 (15:50) -1.7 (-00:0) 3.6 6.94 (00:40) 4.17 (00:50) 0 0 0 0 0
03-01-2020 15.2 (14:40) -5.6 (-00:0) 4.8 6.94 (15:10) 5.28 (15:30) 0 0 0 0 0
02-01-2020 17.3 (15:00) -6.3 (-00:0) 5.5 5.28 (15:10) 2.78 (14:30) 0 0 0 0 0
01-01-2020 18.3 (15:20) -5 (-00:0) 6.6 3.89 (16:20) 2.22 (16:20) 0 0 0 0 0
31-12-2019 16.2 (14:30) -3.4 (-00:0) 6.4 5 (14:40) 2.5 (15:10) 0 0 0 0 0
30-12-2019 -- (--) -- (--) -- -- (--) -- (--) -- 0 0 0 --
29-12-2019 15.3 (14:10) -4.8 (-00:0) 5.3 5.56 (14:50) 4.44 (14:50) 0 0 0 0 0
28-12-2019 16 (15:00) -7.2 (-00:0) 4.4 6.39 (13:10) 5 (13:20) 0 0 0 0 0
27-12-2019 17.1 (14:50) -5.5 (-00:0) 5.8 2.5 (00:50) 1.39 (15:20) 0 0 0 0 0
26-12-2019 15.5 (13:10) -0.6 (-00:0) 7.4 8.33 (14:10) 6.11 (16:20) 0 0 0 0 0
25-12-2019 19.4 (15:40) -2.3 (-00:0) 8.5 5.56 (14:40) 3.06 (15:20) 0 0 0 0 0
24-12-2019 19 (15:40) -1.6 (-00:0) 8.7 6.11 (16:10) 3.89 (16:30) 0 0 0 0 0
23-12-2019 13.8 (15:00) 0 (00:00) 6.9 11.94 (14:00) 6.39 (14:10) 0 0 0 0 0
22-12-2019 9.1 (20:10) 6.2 (00:00) 7.7 20.56 (05:20) 11.67 (05:20) 2.2 2.2 0 0 0
21-12-2019 12.4 (13:20) 7.1 (00:00) 9.7 29.72 (20:20) 15.28 (20:20) 16.6 2.2 5.8 8.2 0.4
20-12-2019 10.8 (07:40) 8.4 (00:00) 9.6 22.78 (07:50) 11.39 (10:30) 48.2 9 7 2 30.2

Gráficas

Temp. máximas Temp. mínimas Temp. medias Precipitaciones Rachas de viento máximas Velocidades máximas media en intervalos de 10 minutos

Datos horarios

Fecha y hora oficial Temperatura (ºC) Velocidad del viento (km/h) Dirección del viento Racha (km/h) Dirección de racha Precipitación (mm) Presión (hPa) Tendencia (hPa) Humedad (%)
2020-01-18 23:00:00 5.9 12 Oeste 31 Oeste 0.4 -- -- 92
2020-01-18 22:00:00 6.2 14 Oeste 37 Oeste 0 -- -- 95
2020-01-18 21:00:00 5.9 18 Oeste 37 Oeste 0 -- -- 96
2020-01-18 20:00:00 5.8 16 Oeste 35 Oeste 0 -- -- 96
2020-01-18 19:00:00 5.8 15 Oeste 33 Oeste 0.2 -- -- 96
2020-01-18 18:00:00 5.6 6 Oeste 17 Oeste 0 -- -- 95
2020-01-18 17:00:00 5.5 11 Sudoeste 24 Oeste 0 -- -- 94
2020-01-18 16:00:00 5.2 8 Oeste 21 Oeste 0 -- -- 94
2020-01-18 15:00:00 5.2 12 Oeste 23 Oeste 0 -- -- 93
2020-01-18 14:00:00 4.8 10 Oeste 28 Oeste 0 -- -- 92
2020-01-18 13:00:00 4.6 13 Oeste 28 Oeste 0 -- -- 93
2020-01-18 12:00:00 4.2 16 Oeste 26 Oeste 0 -- -- 92
2020-01-18 11:00:00 4.3 12 Oeste 24 Oeste 0 -- -- 92
2020-01-18 10:00:00 1.3 2 Oeste 8 Oeste 0 -- -- 94
2020-01-18 09:00:00 -0.2 2 Este 5 Oeste 0 -- -- 93
2020-01-18 08:00:00 -0.6 2 Oeste 10 Este 0 -- -- 93
2020-01-18 07:00:00 -1 0 Calma 5 Norte 0 -- -- 93
2020-01-18 06:00:00 -1.4 2 Este 8 Oeste 0 -- -- 94
2020-01-18 05:00:00 -1.9 0 Calma 4 Nordeste 0 -- -- 94
2020-01-18 04:00:00 -1.7 2 Oeste 5 Sudeste 0 -- -- 93
2020-01-18 03:00:00 -1.4 0 Calma 2 Oeste 0 -- -- 91
2020-01-18 02:00:00 -1.1 0 Calma 8 Sudeste 0 -- -- 92
2020-01-18 01:00:00 -1.3 0 Calma 4 Sudoeste 0 -- -- 91
2020-01-18 00:00:00 -1.3 3 Este 5 Sur 0 -- -- 91
2020-01-17 23:00:00 -1.4 4 Este 11 Norte 0 -- -- 89
2020-01-17 22:00:00 -1 0 Calma 6 Este 0 -- -- 87
2020-01-17 21:00:00 0.7 5 Nordeste 8 Este 0 -- -- 83
2020-01-17 20:00:00 2.3 2 Sudoeste 10 Oeste 0 -- -- 77
2020-01-17 19:00:00 5 4 Oeste 22 Oeste 0 -- -- 67
2020-01-17 18:00:00 7.3 8 Oeste 33 Oeste 0 -- -- 62
2020-01-17 17:00:00 8.3 13 Oeste 30 Oeste 0 -- -- 58
2020-01-17 16:00:00 9 18 Oeste 37 Oeste 0 -- -- 59
2020-01-17 15:00:00 8.2 16 Oeste 31 Oeste 0 -- -- 64
2020-01-17 14:00:00 8.4 17 Oeste 36 Oeste 0 -- -- 62
2020-01-17 13:00:00 7.9 14 Oeste 30 Sudoeste 0 -- -- 67
2020-01-17 12:00:00 6.7 17 Oeste 34 Oeste 0 -- -- 70
2020-01-17 11:00:00 6.8 18 Oeste 37 Oeste 0 -- -- 68
2020-01-17 10:00:00 5.3 17 Oeste 25 Oeste 0 -- -- 73
2020-01-17 09:00:00 4.9 10 Oeste 22 Oeste 0 -- -- 75
2020-01-17 08:00:00 4.1 5 Oeste 14 Oeste 0 -- -- 74
2020-01-17 07:00:00 3.9 3 Oeste 19 Oeste 0 -- -- 72
2020-01-17 06:00:00 4.6 10 Oeste 25 Oeste 0 -- -- 70
2020-01-17 05:00:00 5 14 Oeste 28 Oeste 0 -- -- 68
2020-01-17 04:00:00 4.1 14 Oeste 20 Oeste 0 -- -- 72
2020-01-17 03:00:00 4.1 10 Oeste 24 Oeste 0 -- -- 70
2020-01-17 02:00:00 4.5 10 Noroeste 18 Oeste 0 -- -- 69
2020-01-17 01:00:00 4.2 11 Oeste 18 Oeste 0 -- -- 71
2020-01-17 00:00:00 4.1 8 Oeste 18 Oeste 0 -- -- 71
2020-01-16 23:00:00 4.2 10 Noroeste 15 Oeste 0 -- -- 71
2020-01-16 22:00:00 1.2 4 Oeste 10 Noroeste 0 -- -- 87
2020-01-16 21:00:00 3 2 Sudoeste 13 Noroeste 0 -- -- 77
2020-01-16 20:00:00 6.1 8 Noroeste 18 Oeste 0 -- -- 75
2020-01-16 19:00:00 7.1 4 Oeste 13 Sudoeste 0 -- -- 72
2020-01-16 18:00:00 8.6 6 Sudoeste 14 Sudoeste 0 -- -- 68
2020-01-16 17:00:00 9.7 7 Oeste 21 Oeste 0 -- -- 66
2020-01-16 16:00:00 10.8 10 Oeste 24 Oeste 0 -- -- 64
2020-01-16 15:00:00 10.7 13 Sudoeste 27 Oeste 0 -- -- 63
2020-01-16 14:00:00 11.9 14 Sudoeste 28 Oeste 0 -- -- 57
2020-01-16 13:00:00 10.4 8 Oeste 16 Oeste 0 -- -- 65
2020-01-16 12:00:00 9.9 8 Oeste 15 Oeste 0 -- -- 70
2020-01-16 11:00:00 5.2 0 Calma 3 Este 0 -- -- 85
2020-01-16 10:00:00 0 0 Calma 3 Este 0 -- -- 98
2020-01-16 09:00:00 -2.2 2 Este 5 Este 0 -- -- 96
2020-01-16 08:00:00 -2 0 Calma 6 Este 0 -- -- 96
2020-01-16 07:00:00 -2.4 0 Calma 4 Este 0 -- -- 95
2020-01-16 06:00:00 -2 0 Calma 6 Este 0 -- -- 94
2020-01-16 05:00:00 -1.3 3 Este 8 Este 0 -- -- 93
2020-01-16 04:00:00 -0.2 0 Calma 5 Este 0 -- -- 91
2020-01-16 03:00:00 1.9 2 Este 5 Este 0 -- -- 88
2020-01-16 02:00:00 5.2 0 Calma 5 Oeste 0 -- -- 86
2020-01-16 01:00:00 5.3 0 Calma 5 Noroeste 0 -- -- 86
2020-01-16 00:00:00 5.6 2 Oeste 6 Noroeste 0 -- -- 84
2020-01-15 23:00:00 5.8 0 Calma 6 Norte 0 -- -- 82
2020-01-15 22:00:00 5.5 2 Noroeste 4 Noroeste 0 -- -- 82
2020-01-15 21:00:00 5.5 3 Este 6 Oeste 0 -- -- 79
2020-01-15 20:00:00 6 2 Este 14 Oeste 0 -- -- 78
2020-01-15 19:00:00 5.7 10 Oeste 16 Oeste 0 -- -- 79
2020-01-15 18:00:00 6.3 3 Oeste 15 Sudoeste 0 -- -- 72
2020-01-15 17:00:00 8.2 10 Sudoeste 33 Oeste 0 -- -- 69
2020-01-15 16:00:00 10 15 Sudoeste 28 Oeste 0 -- -- 61
2020-01-15 15:00:00 10.8 14 Sudoeste 39 Oeste 0 -- -- 55
2020-01-15 14:00:00 11.3 23 Oeste 41 Oeste 0 -- -- 50
2020-01-15 13:00:00 10.4 23 Oeste 42 Oeste 0 -- -- 47
2020-01-15 12:00:00 7.7 3 Sudoeste 19 Noroeste 0 -- -- 60
2020-01-15 11:00:00 3.3 5 Noroeste 10 Noroeste 0 -- -- 86
2020-01-15 10:00:00 -2.8 0 Calma 2 Este 0 -- -- 94
2020-01-15 09:00:00 -5.9 0 Calma 5 Este 0 -- -- 91
2020-01-15 08:00:00 -5.6 0 Calma 3 Este 0 -- -- 89
2020-01-15 07:00:00 -4.5 0 Calma 4 Este 0 -- -- 88
2020-01-15 06:00:00 -3.8 0 Calma 4 Este 0 -- -- 89
2020-01-15 05:00:00 -3.6 0 Calma 5 Oeste 0 -- -- 88
2020-01-15 04:00:00 -3.7 0 Calma 4 Este 0 -- -- 90
2020-01-15 03:00:00 -5.4 2 Este 5 Este 0 -- -- 92
2020-01-15 02:00:00 -6.6 4 Este 5 Este 0 -- -- 89
2020-01-15 01:00:00 -6.3 0 Calma 5 Este 0 -- -- 88
2020-01-15 00:00:00 -6.2 0 Calma 4 Este 0 -- -- 86
2020-01-14 23:00:00 -5.6 0 Calma 2 Este 0 -- -- 83
2020-01-14 22:00:00 -4.6 0 Calma 3 Oeste 0 -- -- 83
2020-01-14 21:00:00 -3.7 0 Calma 3 Este 0 -- -- 77
2020-01-14 20:00:00 -1.4 0 Calma 5 Este 0 -- -- 68
2020-01-14 19:00:00 1.6 3 Este 12 Oeste 0 -- -- 61
2020-01-14 18:00:00 7.4 8 Noroeste 15 Sudoeste 0 -- -- 46
2020-01-14 17:00:00 10.5 7 Sudoeste 21 Oeste 0 -- -- 38
2020-01-14 16:00:00 12.6 12 Oeste 21 Oeste 0 -- -- 33
2020-01-14 15:00:00 12.9 12 Oeste 26 Oeste 0 -- -- 34
2020-01-14 14:00:00 12.7 12 Oeste 19 Oeste 0 -- -- 29
2020-01-14 13:00:00 11.7 5 Oeste 9 Oeste 0 -- -- 28
2020-01-14 12:00:00 7 5 Oeste 9 Oeste 0 -- -- 35
2020-01-14 11:00:00 2.3 0 Calma 3 Sudoeste 0 -- -- 47
2020-01-14 10:00:00 -4.5 0 Calma 5 Este 0 -- -- 76
2020-01-14 09:00:00 -8.7 3 Este 6 Este 0 -- -- 83
2020-01-14 08:00:00 -9.2 4 Este 6 Este 0 -- -- 85
2020-01-14 07:00:00 -9.2 2 Este 4 Este 0 -- -- 85
2020-01-14 06:00:00 -9.3 2 Este 4 Este 0 -- -- 85
2020-01-14 05:00:00 -9.1 0 Calma 4 Este 0 -- -- 85
2020-01-14 04:00:00 -9.1 2 Este 6 Este 0 -- -- 86
2020-01-14 03:00:00 -8.9 0 Calma 3 Este 0 -- -- 85
2020-01-14 02:00:00 -8.2 3 Este 8 Este 0 -- -- 84
2020-01-14 01:00:00 -7.5 2 Este 5 Este 0 -- -- 82
2020-01-14 00:00:00 -6.3 0 Calma 4 Este 0 -- -- 79
2020-01-13 23:00:00 -4.9 2 Este 4 Este 0 -- -- 80
2020-01-13 22:00:00 -4.1 2 Este 3 Nordeste 0 -- -- 77
2020-01-13 21:00:00 -2.8 2 Este 4 Este 0 -- -- 72
2020-01-13 20:00:00 -1.1 0 Calma 6 Este 0 -- -- 64
2020-01-13 19:00:00 1.3 2 Este 5 Este 0 -- -- 57
2020-01-13 18:00:00 6.4 4 Oeste 13 Sudoeste 0 -- -- 41
2020-01-13 17:00:00 9.2 5 Oeste 15 Sudoeste 0 -- -- 34
2020-01-13 16:00:00 10.6 9 Sudoeste 22 Sudoeste 0 -- -- 30
2020-01-13 15:00:00 10.7 10 Oeste 17 Oeste 0 -- -- 31
2020-01-13 14:00:00 10.7 9 Oeste 17 Oeste 0 -- -- 29
2020-01-13 13:00:00 8.8 13 Oeste 16 Oeste 0 -- -- 30
2020-01-13 12:00:00 5.1 2 Sudoeste 4 Sudoeste 0 -- -- 43
2020-01-13 11:00:00 0.5 0 Calma 3 Sur 0 -- -- 55
2020-01-13 10:00:00 -5.5 0 Calma 4 Este 0 -- -- 85
2020-01-13 09:00:00 -8.9 2 Este 5 Este 0 -- -- 88
2020-01-13 08:00:00 -9.4 3 Este 5 Este 0 -- -- 87
2020-01-13 07:00:00 -9.3 3 Este 5 Este 0 -- -- 86
2020-01-13 06:00:00 -9.2 3 Este 5 Este 0 -- -- 86
2020-01-13 05:00:00 -9 2 Este 5 Este 0 -- -- 85
2020-01-13 04:00:00 -8.6 3 Este 4 Este 0 -- -- 85
2020-01-13 03:00:00 -8.2 3 Este 4 Este 0 -- -- 83
2020-01-13 02:00:00 -7.8 3 Este 6 Este 0 -- -- 82
2020-01-13 01:00:00 -7.5 3 Este 5 Este 0 -- -- 80
2020-01-13 00:00:00 -7 3 Este 7 Este 0 -- -- 77
2020-01-12 23:00:00 -6.3 5 Este 6 Este 0 -- -- 75
2020-01-12 22:00:00 -5.4 3 Este 5 Este 0 -- -- 71
2020-01-12 21:00:00 -3.5 3 Este 6 Nordeste 0 -- -- 64
2020-01-12 20:00:00 -1.3 0 Calma 6 Este 0 -- -- 54
2020-01-12 19:00:00 1.2 2 Este 11 Este 0 -- -- 50
2020-01-12 18:00:00 5.3 4 Este 12 Nordeste 0 -- -- 41
2020-01-12 17:00:00 9.4 9 Este 18 Este 0 -- -- 33
2020-01-12 16:00:00 11.7 10 Este 18 Este 0 -- -- 29
2020-01-12 15:00:00 11.9 11 Sudeste 19 Sudeste 0 -- -- 27
2020-01-12 14:00:00 12.1 9 Este 17 Este 0 -- -- 27
2020-01-12 13:00:00 10.5 14 Este 18 Este 0 -- -- 30
2020-01-12 12:00:00 8.9 6 Sudeste 22 Este 0 -- -- 34
2020-01-12 11:00:00 2.4 4 Sur 16 Este 0 -- -- 57
2020-01-12 10:00:00 -4.9 0 Calma 2 Sudeste 0 -- -- 86
2020-01-12 09:00:00 -8.5 0 Calma 3 Este 0 -- -- 87
2020-01-12 08:00:00 -8.8 0 Calma 4 Nordeste 0 -- -- 87
2020-01-12 07:00:00 -8.4 2 Este 4 Este 0 -- -- 87
2020-01-12 06:00:00 -7.9 3 Este 5 Nordeste 0 -- -- 87
2020-01-12 05:00:00 -8.1 2 Este 4 Este 0 -- -- 88
2020-01-12 04:00:00 -7.6 2 Este 4 Este 0 -- -- 89
2020-01-12 03:00:00 -7.1 3 Este 5 Este 0 -- -- 89
2020-01-12 02:00:00 -6.3 3 Este 5 Nordeste 0 -- -- 88
2020-01-12 01:00:00 -5.7 2 Este 5 Este 0 -- -- 87
2020-01-12 00:00:00 -5.1 2 Este 6 Este 0 -- -- 86
2020-01-11 23:00:00 -4.5 4 Este 6 Este 0 -- -- 86
2020-01-11 22:00:00 -3.9 2 Este 4 Este 0 -- -- 82
2020-01-11 21:00:00 -3.3 3 Este 5 Este 0 -- -- 81
2020-01-11 20:00:00 -1.1 0 Calma 4 Este 0 -- -- 71
2020-01-11 19:00:00 1.1 2 Este 6 Este 0 -- -- 65
2020-01-11 18:00:00 5.3 0 Calma 15 Nordeste 0 -- -- 53
2020-01-11 17:00:00 8.4 5 Sudeste 8 Este 0 -- -- 41
2020-01-11 16:00:00 10.7 5 Sudeste 8 Sudeste 0 -- -- 37
2020-01-11 15:00:00 11 4 Sudeste 17 Este 0 -- -- 33
2020-01-11 14:00:00 9.9 9 Sudeste 16 Sudeste 0 -- -- 30
2020-01-11 13:00:00 9 4 Sudeste 8 Este 0 -- -- 44
2020-01-11 12:00:00 6.9 3 Sudeste 7 Sudeste 0 -- -- 56
2020-01-11 11:00:00 4.2 6 Este 8 Este 0 -- -- 65
2020-01-11 10:00:00 -1.2 0 Calma 6 Nordeste 0 -- -- 94
2020-01-11 09:00:00 -4.6 2 Este 5 Este 0 -- -- 92
2020-01-11 08:00:00 -4.1 2 Este 6 Sudeste 0 -- -- 91
2020-01-11 07:00:00 -3.6 5 Este 15 Este 0 -- -- 92
2020-01-11 06:00:00 -3.8 4 Este 8 Este 0 -- -- 91
2020-01-11 05:00:00 -3.3 3 Este 13 Este 0 -- -- 91
2020-01-11 04:00:00 -2.6 5 Este 10 Este 0 -- -- 90
2020-01-11 03:00:00 -2.1 6 Este 13 Este 0 -- -- 88
2020-01-11 02:00:00 -0.7 0 Calma 9 Este 0 -- -- 85
2020-01-11 01:00:00 0.4 0 Calma 21 Este 0 -- -- 79
2020-01-11 00:00:00 1.6 8 Nordeste 23 Este 0 -- -- 80
2020-01-10 23:00:00 1.9 9 Este 24 Este 0 -- -- 75
2020-01-10 22:00:00 3.1 13 Este 32 Este 0 -- -- 71
2020-01-10 21:00:00 3.6 14 Este 31 Este 0 -- -- 71
2020-01-10 20:00:00 4 14 Este 33 Este 0 -- -- 68
2020-01-10 19:00:00 4.1 15 Este 31 Este 0 -- -- 67
2020-01-10 18:00:00 4.3 18 Este 40 Sudeste 0 -- -- 65
2020-01-10 17:00:00 4.7 22 Este 34 Este 0 -- -- 64
2020-01-10 16:00:00 5.4 13 Este 42 Este 0 -- -- 61
2020-01-10 15:00:00 5.8 9 Sudeste 41 Oeste 0 -- -- 60
2020-01-10 14:00:00 5.6 9 Este 44 Este 0 -- -- 61
2020-01-10 13:00:00 4.7 19 Este 38 Este 0 -- -- 59
2020-01-10 12:00:00 5.4 4 Sur 31 Este 0 -- -- 60
2020-01-10 11:00:00 5.5 7 Norte 33 Noroeste 0 -- -- 64
2020-01-10 10:00:00 4.1 7 Este 22 Este 0 -- -- 71
2020-01-10 09:00:00 3.2 8 Este 23 Este 0 -- -- 78
2020-01-10 08:00:00 2.9 8 Este 19 Este 0 -- -- 81
2020-01-10 07:00:00 3.3 9 Este 24 Este 0 -- -- 76
2020-01-10 06:00:00 -1.7 6 Este 12 Este 0 -- -- 95
2020-01-10 05:00:00 -1.1 0 Calma 6 Este 0 -- -- 94
2020-01-10 04:00:00 -2 3 Este 6 Este 0 -- -- 94
2020-01-10 03:00:00 -2.6 0 Calma 4 Este 0 -- -- 91
2020-01-10 02:00:00 -2.4 0 Calma 5 Este 0 -- -- 91
2020-01-10 01:00:00 -2.2 2 Este 5 Este 0 -- -- 91
2020-01-10 00:00:00 -1.9 0 Calma 6 Este 0 -- -- 89
2020-01-09 23:00:00 -1 0 Calma 8 Este 0 -- -- 87
2020-01-09 22:00:00 -0.8 2 Este 8 Este 0 -- -- 85
2020-01-09 21:00:00 -0.1 3 Este 6 Este 0 -- -- 81
2020-01-09 20:00:00 1.9 3 Este 5 Noroeste 0 -- -- 76
2020-01-09 19:00:00 5.5 4 Oeste 10 Oeste 0 -- -- 62
2020-01-09 18:00:00 9.2 5 Noroeste 14 Oeste 0 -- -- 51
2020-01-09 17:00:00 11.7 6 Oeste 15 Oeste 0 -- -- 42
2020-01-09 16:00:00 13.3 9 Oeste 16 Oeste 0 -- -- 35
2020-01-09 15:00:00 13.2 9 Oeste 19 Oeste 0 -- -- 38
2020-01-09 14:00:00 12.1 12 Oeste 19 Sudoeste 0 -- -- 41
2020-01-09 13:00:00 11.6 4 Oeste 9 Oeste 0 -- -- 47
2020-01-09 12:00:00 7.8 3 Sur 5 Sudoeste 0 -- -- 67
2020-01-09 11:00:00 3.5 0 Calma 2 Sudeste 0 -- -- 83
2020-01-09 10:00:00 -2.4 0 Calma 3 Este 0 -- -- 96
2020-01-09 09:00:00 -5.3 2 Este 4 Este 0 -- -- 93
2020-01-09 08:00:00 -5 2 Este 4 Este 0 -- -- 93
2020-01-09 07:00:00 -4.9 2 Este 4 Este 0 -- -- 94
2020-01-09 06:00:00 -4.8 3 Este 4 Este 0 -- -- 94
2020-01-09 05:00:00 -4.6 3 Este 5 Este 0 -- -- 95
2020-01-09 04:00:00 -4.1 2 Este 4 Este 0 -- -- 96
2020-01-09 03:00:00 -3.6 3 Este 5 Nordeste 0 -- -- 95
2020-01-09 02:00:00 -3.3 2 Nordeste 6 Este 0 -- -- 94
2020-01-09 01:00:00 -2.8 3 Este 5 Este 0 -- -- 93
2020-01-09 00:00:00 -2.2 0 Calma 3 Nordeste 0 -- -- 93
2020-01-08 23:00:00 -1.6 0 Calma 5 Este 0 -- -- 92
2020-01-08 22:00:00 -1.1 3 Este 4 Este 0 -- -- 90
2020-01-08 21:00:00 0.2 0 Calma 3 Este 0 -- -- 86
2020-01-08 20:00:00 1.9 0 Calma 4 Este 0 -- -- 80
2020-01-08 19:00:00 4.4 3 Este 13 Este 0 -- -- 78
2020-01-08 18:00:00 7.3 7 Este 10 Sudeste 0 -- -- 70
2020-01-08 17:00:00 11.5 5 Sur 17 Sudoeste 0 -- -- 54
2020-01-08 16:00:00 13.2 6 Sudeste 15 Este 0 -- -- 54
2020-01-08 15:00:00 13.2 8 Este 18 Este 0 -- -- 54
2020-01-08 14:00:00 12.4 13 Este 21 Este 0 -- -- 54
2020-01-08 13:00:00 12.3 11 Sudeste 21 Sudeste 0 -- -- 53
2020-01-08 12:00:00 11.2 9 Sudeste 24 Este 0 -- -- 54
2020-01-08 11:00:00 6.3 0 Calma 3 Oeste 0 -- -- 68
2020-01-08 10:00:00 -0.3 0 Calma 2 Sudoeste 0 -- -- 89
2020-01-08 09:00:00 -3.4 0 Calma 2 Nordeste 0 -- -- 88
2020-01-08 08:00:00 -3.6 0 Calma 4 Este 0 -- -- 88
2020-01-08 07:00:00 -3.4 0 Calma 4 Este 0 -- -- 87
2020-01-08 06:00:00 -3.6 0 Calma 4 Este 0 -- -- 86
2020-01-08 05:00:00 -3.8 2 Este 4 Este 0 -- -- 84
2020-01-08 04:00:00 -3.1 3 Este 5 Este 0 -- -- 80
2020-01-08 03:00:00 -2.6 3 Este 6 Este 0 -- -- 78
2020-01-08 02:00:00 -3 2 Este 3 Este 0 -- -- 78
2020-01-08 01:00:00 -3 0 Calma 5 Este 0 -- -- 78
2020-01-08 00:00:00 -2.6 0 Calma 5 Este 0 -- -- 76
2020-01-07 23:00:00 -2.4 0 Calma 6 Este 0 -- -- 76
2020-01-07 22:00:00 -1.7 2 Nordeste 9 Nordeste 0 -- -- 72
2020-01-07 21:00:00 -0.2 3 Este 6 Este 0 -- -- 68
2020-01-07 20:00:00 1.4 3 Este 4 Este 0 -- -- 63
2020-01-07 19:00:00 4 0 Calma 5 Este 0 -- -- 54
2020-01-07 18:00:00 8.6 4 Este 13 Nordeste 0 -- -- 41
2020-01-07 17:00:00 16 7 Norte 13 Este 0 -- -- 22
2020-01-07 16:00:00 18.1 4 Nordeste 18 Noroeste 0 -- -- 20
2020-01-07 15:00:00 17.4 6 Nordeste 27 Oeste 0 -- -- 22
2020-01-07 14:00:00 16.6 7 Noroeste 19 Oeste 0 -- -- 22
2020-01-07 13:00:00 14.7 4 Sudeste 7 Sudoeste 0 -- -- 31
2020-01-07 12:00:00 9.5 4 Oeste 6 Oeste 0 -- -- 50
2020-01-07 11:00:00 4 0 Calma 4 Sudeste 0 -- -- 61
2020-01-07 10:00:00 -2.4 0 Calma 3 Este 0 -- -- 91
2020-01-07 09:00:00 -5.3 0 Calma 6 Este 0 -- -- 89
2020-01-07 08:00:00 -5.3 3 Este 5 Este 0 -- -- 88
2020-01-07 07:00:00 -5.1 3 Este 7 Este 0 -- -- 88
2020-01-07 06:00:00 -4.7 2 Este 4 Este 0 -- -- 87
2020-01-07 05:00:00 -3.9 3 Este 5 Este 0 -- -- 84
2020-01-07 04:00:00 -3.2 0 Calma 4 Este 0 -- -- 80
2020-01-07 03:00:00 -2.7 0 Calma 3 Este 0 -- -- 81
2020-01-07 02:00:00 -2 0 Calma 5 Este 0 -- -- 76
2020-01-07 01:00:00 -1.4 0 Calma 9 Este 0 -- -- 77
2020-01-07 00:00:00 -1.9 4 Este 6 Este 0 -- -- 80
2020-01-06 23:00:00 -1 3 Este 7 Este 0 -- -- 75
2020-01-06 22:00:00 -1.1 5 Este 8 Nordeste 0 -- -- 77
2020-01-06 21:00:00 -0.2 3 Este 5 Nordeste 0 -- -- 73
2020-01-06 20:00:00 1.4 0 Calma 7 Este 0 -- -- 67
2020-01-06 19:00:00 4.4 0 Calma 9 Este 0 -- -- 56
2020-01-06 18:00:00 7.2 3 Nordeste 9 Este 0 -- -- 51
2020-01-06 17:00:00 13.5 2 Este 13 Oeste 0 -- -- 32
2020-01-06 16:00:00 16.7 6 Sudoeste 14 Sudoeste 0 -- -- 28
2020-01-06 15:00:00 16.6 5 Sudoeste 14 Oeste 0 -- -- 28
2020-01-06 14:00:00 15.3 9 Oeste 15 Oeste 0 -- -- 26
2020-01-06 13:00:00 13.3 7 Oeste 13 Oeste 0 -- -- 28
2020-01-06 12:00:00 8.5 3 Sudoeste 4 Sudoeste 0 -- -- 46
2020-01-06 11:00:00 3.4 0 Calma 3 Este 0 -- -- 60
2020-01-06 10:00:00 -3.1 2 Este 4 Este 0 -- -- 91